createdAt,value
2018-04-22T00:01:23.465Z,24.98
2018-04-22T00:03:51.208Z,26.20
2018-04-22T00:06:18.696Z,27.20
2018-04-22T00:08:46.158Z,27.37
2018-04-22T00:11:13.684Z,26.30
2018-04-22T00:13:41.289Z,25.30
2018-04-22T00:16:08.753Z,26.30
2018-04-22T00:18:36.601Z,25.80
2018-04-22T00:21:04.101Z,28.90
2018-04-22T00:23:31.587Z,28.00
2018-04-22T00:25:59.050Z,27.10
2018-04-22T00:28:26.568Z,29.53
2018-04-22T00:30:54.022Z,28.73
2018-04-22T00:33:21.515Z,30.33
2018-04-22T00:35:48.993Z,28.83
2018-04-22T00:38:17.241Z,29.05
2018-04-22T00:40:45.744Z,28.80
2018-04-22T00:43:14.905Z,28.73
2018-04-22T00:45:42.381Z,30.98
2018-04-22T00:48:13.521Z,29.90
2018-04-22T00:50:40.986Z,30.37
2018-04-22T00:53:08.465Z,30.70
2018-04-22T00:55:35.916Z,28.40
2018-04-22T00:58:03.612Z,28.43
2018-04-22T01:00:31.101Z,30.73
2018-04-22T01:03:02.637Z,32.50
2018-04-22T01:05:30.171Z,31.50
2018-04-22T01:07:58.565Z,33.07
2018-04-22T01:10:26.070Z,30.63
2018-04-22T01:12:53.924Z,32.63
2018-04-22T01:15:21.394Z,31.23
2018-04-22T01:17:52.796Z,31.97
2018-04-22T01:20:20.263Z,31.45
2018-04-22T01:22:47.889Z,32.95
2018-04-22T01:25:15.387Z,30.37
2018-04-22T01:27:43.438Z,31.84
2018-04-22T01:30:10.923Z,29.33
2018-04-22T01:32:41.437Z,30.33
2018-04-22T01:35:08.916Z,32.40
2018-04-22T01:37:36.528Z,31.98
2018-04-22T01:40:04.022Z,31.70
2018-04-22T01:42:31.500Z,30.05
2018-04-22T01:44:58.993Z,28.15
2018-04-22T01:47:31.664Z,32.07
2018-04-22T01:50:06.893Z,32.80
2018-04-22T01:52:34.656Z,29.47
2018-04-22T01:55:02.112Z,31.63
2018-04-22T01:57:29.966Z,32.67
2018-04-22T01:59:58.369Z,44.60
2018-04-22T02:02:25.865Z,36.70
2018-04-22T02:04:53.483Z,40.53
2018-04-22T02:07:21.172Z,41.50
2018-04-22T02:09:48.632Z,40.33
2018-04-22T02:12:16.157Z,41.97
2018-04-22T02:14:43.637Z,39.10
2018-04-22T02:17:12.785Z,30.17
2018-04-22T02:19:40.279Z,31.57
2018-04-22T02:22:08.546Z,35.33
2018-04-22T02:24:36.933Z,33.80
2018-04-22T02:27:04.740Z,36.08
2018-04-22T02:29:32.304Z,41.50
2018-04-22T02:31:59.762Z,40.83
2018-04-22T02:34:34.633Z,43.00
2018-04-22T02:37:03.023Z,40.77
2018-04-22T02:39:31.263Z,40.20
2018-04-22T02:41:58.744Z,38.42
2018-04-22T02:44:26.797Z,39.83
2018-04-22T02:46:54.281Z,40.58
2018-04-22T02:49:21.787Z,38.67
2018-04-22T02:51:49.266Z,38.30
2018-04-22T02:54:16.770Z,33.53
2018-04-22T02:56:44.253Z,37.50
2018-04-22T02:59:11.721Z,39.40
2018-04-22T03:01:39.293Z,35.53
2018-04-22T03:04:09.954Z,34.78
2018-04-22T03:06:37.456Z,34.97
2018-04-22T03:09:06.172Z,31.30
2018-04-22T03:11:33.665Z,30.90
2018-04-22T03:14:01.159Z,32.77
2018-04-22T03:16:28.634Z,32.27
2018-04-22T03:19:03.448Z,30.00
2018-04-22T03:21:30.912Z,25.92
2018-04-22T03:23:58.365Z,31.40
2018-04-22T03:26:25.848Z,33.28
2018-04-22T03:28:53.315Z,30.77
2018-04-22T03:31:20.798Z,30.70
2018-04-22T03:33:49.992Z,33.22
2018-04-22T03:36:17.505Z,34.83
2018-04-22T03:38:45.012Z,32.87
2018-04-22T03:41:13.267Z,32.85
2018-04-22T03:43:40.834Z,32.90
2018-04-22T03:46:08.298Z,37.75
2018-04-22T03:48:35.781Z,37.63
2018-04-22T03:51:03.901Z,38.25
2018-04-22T03:53:31.430Z,36.70
2018-04-22T03:55:58.876Z,37.17
2018-04-22T03:58:26.384Z,37.97
2018-04-22T04:00:53.963Z,38.27
2018-04-22T04:03:21.416Z,36.03
2018-04-22T04:05:52.672Z,36.65
2018-04-22T04:08:20.156Z,36.30
2018-04-22T04:10:48.268Z,38.63
2018-04-22T04:13:15.770Z,38.87
2018-04-22T04:15:44.083Z,36.60
2018-04-22T04:21:35.068Z,37.22
2018-04-22T04:27:37.749Z,33.20
2018-04-22T04:30:05.233Z,36.60
2018-04-22T04:32:32.790Z,35.70
2018-04-22T04:35:00.781Z,38.80
2018-04-22T04:37:28.304Z,30.33
2018-04-22T04:39:56.302Z,30.25
2018-04-22T04:42:23.778Z,25.87
2018-04-22T04:44:52.016Z,26.20
2018-04-22T04:47:19.489Z,25.63
2018-04-22T04:49:46.969Z,26.73
2018-04-22T04:52:14.429Z,27.07
2018-04-22T04:54:41.956Z,26.30
2018-04-22T04:57:11.120Z,27.40
2018-04-22T04:59:38.598Z,27.70
2018-04-22T05:02:06.109Z,26.70
2018-04-22T05:04:33.573Z,26.73
2018-04-22T05:07:01.044Z,25.70
2018-04-22T05:09:30.251Z,24.95
2018-04-22T05:11:57.764Z,25.00
2018-04-22T05:14:26.836Z,23.80
2018-04-22T05:16:55.971Z,23.90
2018-04-22T05:19:24.459Z,25.67
2018-04-22T05:21:52.003Z,26.20
2018-04-22T05:24:19.550Z,26.27
2018-04-22T05:26:47.092Z,30.70
2018-04-22T05:29:14.648Z,25.63
2018-04-22T05:31:42.195Z,22.73
2018-04-22T05:34:09.733Z,27.67
2018-04-22T05:36:37.625Z,26.90
2018-04-22T05:39:06.016Z,25.50
2018-04-22T05:41:33.766Z,24.23
2018-04-22T05:44:01.293Z,26.03
2018-04-22T05:46:28.764Z,22.80
2018-04-22T05:48:56.254Z,23.10
2018-04-22T05:51:28.229Z,22.15
2018-04-22T05:53:56.448Z,21.90
2018-04-22T05:56:23.949Z,22.80
2018-04-22T05:58:53.109Z,22.10
2018-04-22T06:01:20.603Z,21.95
2018-04-22T06:03:48.139Z,22.77
2018-04-22T06:06:15.614Z,21.90
2018-04-22T06:08:43.113Z,23.40
2018-04-22T06:11:10.602Z,23.73
2018-04-22T06:13:38.186Z,23.07
2018-04-22T06:16:07.034Z,25.15
2018-04-22T06:18:34.557Z,25.80
2018-04-22T06:21:02.786Z,23.83
2018-04-22T06:23:33.962Z,25.88
2018-04-22T06:26:01.674Z,25.37
2018-04-22T06:28:29.176Z,25.60
2018-04-22T06:30:56.710Z,26.57
2018-04-22T06:33:24.290Z,27.10
2018-04-22T06:35:53.245Z,26.70
2018-04-22T06:38:20.743Z,25.67
2018-04-22T06:40:48.249Z,27.47
2018-04-22T06:43:15.736Z,29.27
2018-04-22T06:45:43.208Z,27.43
2018-04-22T06:48:10.689Z,27.50
2018-04-22T06:50:39.881Z,28.17
2018-04-22T06:53:11.629Z,28.40
2018-04-22T06:55:39.877Z,26.78
2018-04-22T06:58:07.543Z,28.17
2018-04-22T07:00:35.066Z,27.20
2018-04-22T07:03:02.526Z,28.23
2018-04-22T07:05:30.102Z,27.23
2018-04-22T07:07:57.545Z,28.03
2018-04-22T07:10:25.033Z,29.70
2018-04-22T07:12:52.518Z,26.33
2018-04-22T07:15:20.017Z,28.20
2018-04-22T07:17:48.550Z,27.80
2018-04-22T07:20:16.078Z,27.90
2018-04-22T07:22:43.581Z,27.77
2018-04-22T07:25:11.049Z,25.23
2018-04-22T07:27:38.502Z,28.33
2018-04-22T07:30:07.908Z,25.50
2018-04-22T07:32:35.357Z,25.93
2018-04-22T07:35:03.597Z,26.15
2018-04-22T07:37:31.073Z,27.00
2018-04-22T07:39:58.540Z,24.37
2018-04-22T07:42:26.980Z,26.40
2018-04-22T07:44:54.453Z,26.60
2018-04-22T07:47:22.156Z,24.70
2018-04-22T07:49:49.761Z,26.02
2018-04-22T07:52:17.268Z,25.40
2018-04-22T07:54:44.725Z,25.80
2018-04-22T07:57:13.002Z,23.60
2018-04-22T07:59:41.273Z,22.30
2018-04-22T08:02:08.776Z,23.03
2018-04-22T08:04:36.249Z,21.67
2018-04-22T08:07:03.714Z,22.07
2018-04-22T08:09:31.199Z,21.90
2018-04-22T08:11:58.670Z,20.87
2018-04-22T08:14:26.934Z,20.40
2018-04-22T08:16:55.305Z,21.87
2018-04-22T08:19:22.798Z,20.17
2018-04-22T08:21:50.468Z,20.60
2018-04-22T08:24:22.538Z,21.35
2018-04-22T08:26:50.021Z,20.97
2018-04-22T08:29:17.576Z,20.73
2018-04-22T08:31:45.045Z,20.00
2018-04-22T08:34:12.539Z,19.80
2018-04-22T08:36:40.075Z,22.27
2018-04-22T08:39:11.769Z,20.15
2018-04-22T08:41:39.443Z,20.60
2018-04-22T08:44:07.115Z,18.35
2018-04-22T08:46:36.437Z,19.50
2018-04-22T08:49:04.450Z,18.42
2018-04-22T08:51:32.722Z,20.70
2018-04-22T08:54:00.579Z,17.67
2018-04-22T08:56:28.495Z,18.85
2018-04-22T08:58:56.005Z,18.60
2018-04-22T09:01:24.072Z,19.35
2018-04-22T09:03:51.552Z,19.33
2018-04-22T09:06:19.832Z,18.40
2018-04-22T09:08:47.706Z,19.58
2018-04-22T09:11:15.204Z,18.60
2018-04-22T09:13:42.693Z,18.17
2018-04-22T09:16:10.177Z,18.53
2018-04-22T09:18:37.688Z,16.67
2018-04-22T09:21:05.168Z,17.60
2018-04-22T09:23:32.659Z,16.53
2018-04-22T09:26:04.861Z,17.42
2018-04-22T09:28:32.494Z,17.08
2018-04-22T09:31:00.209Z,17.53
2018-04-22T09:33:27.677Z,15.97
2018-04-22T09:35:55.968Z,17.60
2018-04-22T09:38:23.442Z,15.07
2018-04-22T09:40:56.086Z,14.80
2018-04-22T09:43:23.547Z,15.77
2018-04-22T09:45:51.086Z,14.27
2018-04-22T09:48:18.533Z,14.07
2018-04-22T09:50:46.039Z,14.80
2018-04-22T09:53:14.440Z,14.73
2018-04-22T09:55:46.429Z,15.15
2018-04-22T09:58:13.986Z,14.18
2018-04-22T10:00:41.500Z,15.05
2018-04-22T10:03:10.723Z,14.23
2018-04-22T10:05:43.789Z,13.77
2018-04-22T10:08:11.580Z,13.94
2018-04-22T10:10:42.829Z,14.70
2018-04-22T10:13:10.364Z,14.63
2018-04-22T10:15:37.830Z,11.33
2018-04-22T10:18:05.540Z,10.73
2018-04-22T10:20:33.040Z,13.73
2018-04-22T10:23:01.949Z,11.45
2018-04-22T10:25:29.425Z,11.77
2018-04-22T10:27:56.939Z,13.50
2018-04-22T10:30:26.149Z,11.82
2018-04-22T10:32:53.635Z,12.33
2018-04-22T10:35:21.608Z,10.80
2018-04-22T10:37:49.105Z,11.47
2018-04-22T10:40:16.579Z,11.43
2018-04-22T10:42:45.739Z,10.27
2018-04-22T10:45:13.324Z,9.90
2018-04-22T10:47:41.578Z,9.35
2018-04-22T10:50:09.548Z,9.98
2018-04-22T10:52:37.157Z,10.50
2018-04-22T10:55:04.630Z,9.20
2018-04-22T10:57:32.187Z,10.07
2018-04-22T11:00:00.632Z,7.63
2018-04-22T11:02:29.963Z,7.20
2018-04-22T11:04:57.484Z,7.60
2018-04-22T11:07:25.767Z,9.23
2018-04-22T11:09:53.579Z,7.25
2018-04-22T11:12:21.071Z,7.55
2018-04-22T11:14:49.307Z,7.00
2018-04-22T11:17:16.864Z,8.27
2018-04-22T11:19:44.359Z,8.13
2018-04-22T11:22:11.902Z,8.00
2018-04-22T11:24:39.474Z,8.10
2018-04-22T11:27:07.612Z,9.07
2018-04-22T11:29:35.236Z,8.80
2018-04-22T11:32:03.480Z,8.83
2018-04-22T11:34:30.959Z,8.53
2018-04-22T11:36:58.472Z,8.32
2018-04-22T11:39:26.449Z,7.28
2018-04-22T11:41:53.957Z,7.43
2018-04-22T11:44:22.222Z,7.90
2018-04-22T11:46:49.702Z,7.70
2018-04-22T11:49:17.348Z,8.87
2018-04-22T11:51:44.901Z,7.20
2018-04-22T11:54:12.408Z,8.73
2018-04-22T11:56:40.425Z,8.13
2018-04-22T11:59:11.564Z,8.23
2018-04-22T12:01:39.045Z,7.07
2018-04-22T12:04:06.547Z,7.93
2018-04-22T12:06:35.319Z,7.32
2018-04-22T12:09:02.791Z,7.27
2018-04-22T12:11:30.248Z,8.00
2018-04-22T12:13:57.733Z,6.70
2018-04-22T12:16:25.958Z,5.87
2018-04-22T12:18:54.348Z,6.68
2018-04-22T12:21:21.852Z,5.90
2018-04-22T12:23:49.638Z,6.30
2018-04-22T12:26:17.135Z,6.80
2018-04-22T12:28:44.601Z,6.03
2018-04-22T12:31:22.741Z,6.45
2018-04-22T12:33:50.243Z,6.40
2018-04-22T12:36:17.739Z,6.50
2018-04-22T12:38:45.236Z,6.10
2018-04-22T12:41:12.688Z,6.47
2018-04-22T12:43:43.427Z,6.68
2018-04-22T12:46:11.319Z,6.50
2018-04-22T12:48:39.573Z,5.68
2018-04-22T12:51:10.101Z,6.50
2018-04-22T12:53:37.601Z,5.50
2018-04-22T12:56:05.270Z,6.95
2018-04-22T12:58:40.389Z,5.70
2018-04-22T13:01:07.864Z,6.10
2018-04-22T13:03:35.369Z,5.57
2018-04-22T13:06:03.674Z,6.03
2018-04-22T13:08:31.118Z,4.90
2018-04-22T13:10:59.784Z,5.10
2018-04-22T13:13:28.026Z,5.78
2018-04-22T13:15:55.496Z,4.80
2018-04-22T13:18:22.973Z,5.20
2018-04-22T13:20:51.283Z,5.30
2018-04-22T13:23:19.789Z,5.10
2018-04-22T13:25:47.276Z,5.20
2018-04-22T13:28:14.786Z,3.85
2018-04-22T13:30:42.287Z,5.10
2018-04-22T13:33:09.776Z,3.73
2018-04-22T13:35:37.953Z,4.82
2018-04-22T13:38:06.178Z,3.70
2018-04-22T13:40:33.658Z,3.70
2018-04-22T13:43:01.177Z,3.60
2018-04-22T13:45:28.625Z,4.20
2018-04-22T13:47:56.108Z,3.73
2018-04-22T13:50:23.590Z,4.07
2018-04-22T13:52:51.871Z,4.87
2018-04-22T13:55:19.437Z,4.77
2018-04-22T13:57:46.894Z,4.63
2018-04-22T14:00:17.420Z,3.92
2018-04-22T14:02:44.889Z,4.17
2018-04-22T14:05:12.422Z,4.90
2018-04-22T14:07:40.193Z,4.18
2018-04-22T14:10:07.971Z,4.20
2018-04-22T14:12:35.975Z,4.85
2018-04-22T14:15:03.499Z,4.03
2018-04-22T14:17:31.035Z,4.10
2018-04-22T14:19:58.517Z,4.20
2018-04-22T14:22:26.789Z,4.27
2018-04-22T14:24:54.811Z,3.30
2018-04-22T14:27:22.404Z,3.45
2018-04-22T14:29:53.297Z,4.18
2018-04-22T14:32:20.792Z,3.55
2018-04-22T14:34:48.252Z,3.83
2018-04-22T14:37:15.713Z,4.00
2018-04-22T14:39:43.194Z,4.50
2018-04-22T14:42:10.810Z,4.65
2018-04-22T14:44:50.648Z,4.50
2018-04-22T14:47:21.528Z,5.30
2018-04-22T14:49:48.988Z,4.20
2018-04-22T14:52:17.309Z,4.30
2018-04-22T14:54:44.766Z,3.93
2018-04-22T14:57:12.252Z,3.97
2018-04-22T14:59:40.237Z,4.15
2018-04-22T15:02:07.797Z,3.60
2018-04-22T15:04:35.361Z,3.67
2018-04-22T15:07:02.836Z,5.43
2018-04-22T15:09:30.288Z,3.90
2018-04-22T15:11:57.846Z,4.27
2018-04-22T15:14:25.296Z,3.60
2018-04-22T15:16:58.116Z,3.23
2018-04-22T15:19:25.612Z,3.80
2018-04-22T15:21:53.093Z,3.83
2018-04-22T15:24:21.310Z,3.90
2018-04-22T15:26:48.779Z,3.40
2018-04-22T15:29:16.258Z,4.50
2018-04-22T15:31:47.440Z,3.50
2018-04-22T15:34:15.046Z,4.03
2018-04-22T15:36:43.473Z,3.70
2018-04-22T15:39:10.940Z,4.10
2018-04-22T15:41:38.440Z,4.90
2018-04-22T15:44:05.918Z,3.27
2018-04-22T15:46:40.938Z,3.87
2018-04-22T15:49:10.074Z,4.47
2018-04-22T15:51:37.581Z,3.77
2018-04-22T15:54:05.320Z,4.80
2018-04-22T15:56:33.594Z,3.80
2018-04-22T15:59:01.082Z,4.43
2018-04-22T16:01:28.877Z,4.20
2018-04-22T16:03:56.497Z,3.90
2018-04-22T16:06:23.965Z,3.67
2018-04-22T16:08:51.419Z,4.00
2018-04-22T16:11:18.909Z,3.80
2018-04-22T16:13:46.398Z,4.43
2018-04-22T16:16:14.684Z,4.80
2018-04-22T16:18:42.194Z,4.33
2018-04-22T16:21:09.698Z,3.72
2018-04-22T16:23:37.944Z,3.75
2018-04-22T16:26:05.437Z,3.57
2018-04-22T16:28:33.681Z,3.57
2018-04-22T16:31:01.172Z,4.60
2018-04-22T16:33:28.802Z,4.12
2018-04-22T16:35:56.265Z,4.03
2018-04-22T16:38:23.724Z,4.32
2018-04-22T16:40:51.202Z,3.73
2018-04-22T16:43:18.678Z,4.18
2018-04-22T16:45:46.165Z,3.57
2018-04-22T16:48:13.649Z,3.43
2018-04-22T16:50:41.092Z,4.07
2018-04-22T16:53:09.506Z,4.07
2018-04-22T16:55:37.058Z,3.30
2018-04-22T16:58:04.547Z,2.93
2018-04-22T17:00:32.039Z,3.17
2018-04-22T17:02:59.503Z,4.03
2018-04-22T17:05:27.000Z,4.67
2018-04-22T17:07:54.505Z,3.33
2018-04-22T17:10:22.000Z,2.80
2018-04-22T17:12:49.751Z,2.53
2018-04-22T17:15:17.894Z,2.90
2018-04-22T17:17:45.354Z,2.90
2018-04-22T17:20:12.938Z,3.50
2018-04-22T17:22:40.449Z,3.90
2018-04-22T17:25:07.951Z,3.60
2018-04-22T17:27:35.413Z,3.62
2018-04-22T17:30:02.895Z,3.78
2018-04-22T17:32:30.650Z,3.60
2018-04-22T17:34:58.434Z,3.20
2018-04-22T17:37:26.846Z,3.05
2018-04-22T17:39:54.335Z,3.60
2018-04-22T17:42:21.820Z,4.40
2018-04-22T17:44:49.301Z,4.00
2018-04-22T17:47:16.886Z,4.72
2018-04-22T17:49:49.703Z,4.95
2018-04-22T17:52:17.331Z,5.10
2018-04-22T17:54:44.805Z,4.00
2018-04-22T17:57:12.301Z,5.20
2018-04-22T17:59:40.269Z,4.90
2018-04-22T18:02:08.511Z,5.07
2018-04-22T18:04:36.163Z,4.70
2018-04-22T18:07:04.610Z,5.30
2018-04-22T18:09:32.116Z,4.90
2018-04-22T18:12:00.498Z,5.18
2018-04-22T18:14:28.034Z,4.77
2018-04-22T18:16:55.517Z,5.75
2018-04-22T18:19:30.611Z,5.37
2018-04-22T18:21:58.160Z,5.25
2018-04-22T18:24:25.681Z,5.33
2018-04-22T18:26:53.170Z,5.83
2018-04-22T18:29:20.629Z,5.80
2018-04-22T18:31:48.133Z,8.30
2018-04-22T18:34:19.329Z,6.23
2018-04-22T18:36:47.024Z,7.90
2018-04-22T18:39:14.569Z,7.23
2018-04-22T18:41:42.110Z,5.50
2018-04-22T18:44:09.917Z,6.00
2018-04-22T18:46:37.477Z,6.43
2018-04-22T18:49:04.977Z,6.10
2018-04-22T18:51:33.410Z,6.00
2018-04-22T18:54:00.898Z,5.15
2018-04-22T18:56:28.624Z,7.10
2018-04-22T18:58:57.034Z,5.70
2018-04-22T19:01:24.642Z,5.78
2018-04-22T19:03:53.021Z,5.50
2018-04-22T19:06:20.610Z,5.60
2018-04-22T19:08:48.089Z,5.67
2018-04-22T19:11:15.823Z,6.37
2018-04-22T19:13:43.310Z,6.87
2018-04-22T19:16:10.895Z,8.27
2018-04-22T19:18:38.393Z,7.60
2018-04-22T19:21:07.115Z,5.93
2018-04-22T19:23:34.629Z,7.87
2018-04-22T19:26:02.652Z,5.13
2018-04-22T19:28:30.173Z,5.95
2018-04-22T19:30:57.699Z,6.03
2018-04-22T19:33:26.693Z,6.35
2018-04-22T19:35:54.254Z,6.43
2018-04-22T19:38:22.247Z,5.00
2018-04-22T19:40:50.920Z,4.75
2018-04-22T19:43:18.479Z,5.30
2018-04-22T19:45:46.061Z,5.72
2018-04-22T19:48:13.542Z,5.40
2018-04-22T19:50:41.269Z,6.10
2018-04-22T19:53:08.780Z,5.37
2018-04-22T19:55:36.377Z,5.60
2018-04-22T19:58:04.528Z,6.05
2018-04-22T20:00:33.030Z,6.47
2018-04-22T20:03:00.623Z,6.03
2018-04-22T20:05:35.436Z,4.87
2018-04-22T20:08:02.943Z,5.33
2018-04-22T20:10:30.758Z,5.18
2018-04-22T20:12:58.219Z,6.05
2018-04-22T20:15:25.702Z,5.28
2018-04-22T20:17:53.530Z,5.70
2018-04-22T20:20:21.053Z,5.00
2018-04-22T20:22:49.816Z,5.43
2018-04-22T20:25:17.295Z,5.60
2018-04-22T20:27:44.832Z,6.67
2018-04-22T20:30:12.345Z,6.40
2018-04-22T20:32:39.815Z,5.95
2018-04-22T20:35:08.095Z,7.50
2018-04-22T20:37:35.680Z,7.00
2018-04-22T20:40:03.260Z,6.30
2018-04-22T20:42:30.845Z,7.13
2018-04-22T20:44:58.392Z,6.90
2018-04-22T20:47:26.094Z,6.13
2018-04-22T20:49:53.573Z,7.13
2018-04-22T20:52:21.590Z,6.50
2018-04-22T20:54:49.082Z,6.80
2018-04-22T20:57:16.560Z,6.80
2018-04-22T20:59:44.083Z,6.43
2018-04-22T21:02:11.590Z,6.00
2018-04-22T21:04:39.054Z,5.70
2018-04-22T21:07:09.888Z,6.07
2018-04-22T21:09:37.282Z,6.30
2018-04-22T21:12:05.835Z,5.55
2018-04-22T21:14:34.276Z,6.20
2018-04-22T21:17:01.734Z,5.60
2018-04-22T21:19:29.225Z,6.30
2018-04-22T21:21:56.806Z,8.90
2018-04-22T21:24:24.319Z,6.95
2018-04-22T21:26:51.820Z,7.05
2018-04-22T21:29:19.745Z,6.73
2018-04-22T21:31:47.225Z,7.00
2018-04-22T21:34:14.889Z,6.45
2018-04-22T21:36:42.403Z,7.15
2018-04-22T21:39:09.879Z,7.05
2018-04-22T21:41:37.358Z,6.73
2018-04-22T21:44:04.834Z,6.00
2018-04-22T21:46:33.268Z,6.60
2018-04-22T21:49:00.762Z,9.10
2018-04-22T21:51:28.219Z,7.93
2018-04-22T21:53:56.497Z,6.30
2018-04-22T21:56:23.960Z,6.73
2018-04-22T21:58:51.474Z,7.70
2018-04-22T22:01:18.970Z,8.10
2018-04-22T22:03:47.541Z,7.03
2018-04-22T22:06:15.017Z,6.40
2018-04-22T22:08:42.513Z,6.40
2018-04-22T22:11:10.189Z,6.40
2018-04-22T22:13:37.660Z,6.63
2018-04-22T22:16:05.145Z,6.23
2018-04-22T22:18:32.609Z,7.77
2018-04-22T22:21:00.792Z,7.13
2018-04-22T22:23:28.256Z,7.10
2018-04-22T22:25:55.800Z,6.70
2018-04-22T22:28:23.249Z,7.70
2018-04-22T22:30:50.763Z,6.57
2018-04-22T22:33:18.209Z,6.87
2018-04-22T22:35:45.700Z,6.20
2018-04-22T22:38:16.392Z,8.87
2018-04-22T22:40:44.673Z,8.60
2018-04-22T22:43:12.433Z,7.32
2018-04-22T22:45:39.917Z,7.70
2018-04-22T22:48:07.391Z,7.30
2018-04-22T22:50:34.895Z,8.10
2018-04-22T22:53:03.367Z,7.70
2018-04-22T22:55:31.110Z,7.00
2018-04-22T22:57:58.720Z,7.18
2018-04-22T23:00:26.174Z,6.73
2018-04-22T23:02:53.687Z,7.20
2018-04-22T23:05:21.187Z,7.17
2018-04-22T23:07:48.860Z,8.60
2018-04-22T23:10:16.326Z,7.10
2018-04-22T23:12:43.837Z,7.82
2018-04-22T23:15:13.026Z,7.45
2018-04-22T23:17:42.808Z,6.80
2018-04-22T23:20:10.263Z,6.83
2018-04-22T23:22:37.797Z,7.25
2018-04-22T23:25:05.278Z,8.05
2018-04-22T23:27:32.766Z,7.63
2018-04-22T23:30:00.225Z,7.50
2018-04-22T23:32:28.475Z,8.00
2018-04-22T23:34:57.036Z,6.50
2018-04-22T23:37:24.509Z,7.37
2018-04-22T23:39:51.996Z,8.57
2018-04-22T23:42:29.677Z,6.97
2018-04-22T23:44:58.280Z,7.10
2018-04-22T23:47:27.421Z,5.77
2018-04-22T23:49:54.911Z,6.95
2018-04-22T23:52:22.399Z,6.40
2018-04-22T23:54:50.637Z,7.50
2018-04-22T23:57:18.135Z,6.50
2018-04-22T23:59:45.611Z,7.17
